sensor_id;sensor_type;location;lat;lon;timestamp;pressure;altitude;pressure_sealevel;temperature;humidity
6349;BME280;3207;42.648;23.406;2023-04-28T00:00:17;100414.34;;;14.39;nan
6349;BME280;3207;42.648;23.406;2023-04-28T00:02:44;100402.31;;;14.25;nan
6349;BME280;3207;42.648;23.406;2023-04-28T00:05:13;100407.81;;;14.22;nan
6349;BME280;3207;42.648;23.406;2023-04-28T00:07:41;100396.13;;;14.15;nan
6349;BME280;3207;42.648;23.406;2023-04-28T00:10:08;100392.19;;;14.09;nan
6349;BME280;3207;42.648;23.406;2023-04-28T00:12:35;100408.31;;;14.16;nan
6349;BME280;3207;42.648;23.406;2023-04-28T00:15:02;100398.03;;;14.13;nan
6349;BME280;3207;42.648;23.406;2023-04-28T00:17:29;100399.94;;;14.11;nan
6349;BME280;3207;42.648;23.406;2023-04-28T00:19:56;100404.97;;;14.14;nan
6349;BME280;3207;42.648;23.406;2023-04-28T00:22:23;100406.63;;;14.15;nan
6349;BME280;3207;42.648;23.406;2023-04-28T00:24:51;100410.00;;;14.17;nan
6349;BME280;3207;42.648;23.406;2023-04-28T00:27:18;100413.34;;;14.19;nan
6349;BME280;3207;42.648;23.406;2023-04-28T00:29:44;100400.44;;;14.16;nan
6349;BME280;3207;42.648;23.406;2023-04-28T00:32:11;100401.97;;;14.18;nan
6349;BME280;3207;42.648;23.406;2023-04-28T00:34:38;100397.56;;;14.19;nan
6349;BME280;3207;42.648;23.406;2023-04-28T00:37:05;100397.09;;;14.14;nan
6349;BME280;3207;42.648;23.406;2023-04-28T00:39:32;100394.28;;;13.95;nan
6349;BME280;3207;42.648;23.406;2023-04-28T00:42:00;100392.50;;;13.84;nan
6349;BME280;3207;42.648;23.406;2023-04-28T00:44:28;100393.78;;;13.89;nan
6349;BME280;3207;42.648;23.406;2023-04-28T00:46:55;100402.63;;;13.88;nan
6349;BME280;3207;42.648;23.406;2023-04-28T00:49:22;100400.00;;;13.88;nan
6349;BME280;3207;42.648;23.406;2023-04-28T00:51:49;100397.66;;;13.74;nan
6349;BME280;3207;42.648;23.406;2023-04-28T00:54:16;100397.66;;;13.85;nan
6349;BME280;3207;42.648;23.406;2023-04-28T00:56:43;100392.50;;;13.84;nan
6349;BME280;3207;42.648;23.406;2023-04-28T00:59:11;100400.50;;;13.82;nan
6349;BME280;3207;42.648;23.406;2023-04-28T01:01:38;100398.84;;;13.81;nan
6349;BME280;3207;42.648;23.406;2023-04-28T01:04:05;100400.75;;;13.79;nan
6349;BME280;3207;42.648;23.406;2023-04-28T01:06:32;100402.19;;;13.83;nan
6349;BME280;3207;42.648;23.406;2023-04-28T01:08:59;100402.19;;;13.83;nan
6349;BME280;3207;42.648;23.406;2023-04-28T01:11:26;100405.53;;;13.85;nan
6349;BME280;3207;42.648;23.406;2023-04-28T01:13:53;100401.22;;;13.84;nan
6349;BME280;3207;42.648;23.406;2023-04-28T01:16:23;100395.25;;;13.82;nan
6349;BME280;3207;42.648;23.406;2023-04-28T01:18:51;100400.50;;;13.82;nan
6349;BME280;3207;42.648;23.406;2023-04-28T01:21:25;100397.66;;;13.85;nan
6349;BME280;3207;42.648;23.406;2023-04-28T01:23:55;100394.66;;;13.79;nan
6349;BME280;3207;42.648;23.406;2023-04-28T01:26:22;100398.84;;;13.81;nan
6349;BME280;3207;42.648;23.406;2023-04-28T01:28:48;100383.06;;;13.81;nan
6349;BME280;3207;42.648;23.406;2023-04-28T01:31:15;100394.53;;;13.80;nan
6349;BME280;3207;42.648;23.406;2023-04-28T01:33:42;100393.47;;;13.83;nan
6349;BME280;3207;42.648;23.406;2023-04-28T01:36:09;100391.66;;;13.83;nan
6349;BME280;3207;42.648;23.406;2023-04-28T01:38:36;100396.94;;;13.83;nan
6349;BME280;3207;42.648;23.406;2023-04-28T01:41:04;100404.81;;;13.83;nan
6349;BME280;3207;42.648;23.406;2023-04-28T01:43:31;100391.56;;;13.85;nan
6349;BME280;3207;42.648;23.406;2023-04-28T01:45:58;100396.69;;;13.86;nan
6349;BME280;3207;42.648;23.406;2023-04-28T01:48:25;100389.03;;;13.83;nan
6349;BME280;3207;42.648;23.406;2023-04-28T01:50:51;100393.22;;;13.86;nan
6349;BME280;3207;42.648;23.406;2023-04-28T01:53:18;100387.25;;;13.84;nan
6349;BME280;3207;42.648;23.406;2023-04-28T01:55:45;100387.38;;;13.82;nan
6349;BME280;3207;42.648;23.406;2023-04-28T01:58:13;100385.94;;;13.78;nan
6349;BME280;3207;42.648;23.406;2023-04-28T02:00:40;100388.72;;;13.77;nan
6349;BME280;3207;42.648;23.406;2023-04-28T02:03:07;100375.31;;;13.69;nan
6349;BME280;3207;42.648;23.406;2023-04-28T02:05:34;100383.81;;;13.61;nan
6349;BME280;3207;42.648;23.406;2023-04-28T02:08:01;100381.19;;;13.61;nan
6349;BME280;3207;42.648;23.406;2023-04-28T02:10:28;100377.00;;;13.59;nan
6349;BME280;3207;42.648;23.406;2023-04-28T02:12:55;100382.38;;;13.57;nan
6349;BME280;3207;42.648;23.406;2023-04-28T02:15:23;100377.13;;;13.57;nan
6349;BME280;3207;42.648;23.406;2023-04-28T02:17:50;100389.31;;;13.58;nan
6349;BME280;3207;42.648;23.406;2023-04-28T02:20:17;100386.44;;;13.61;nan
6349;BME280;3207;42.648;23.406;2023-04-28T02:22:43;100391.47;;;13.64;nan
6349;BME280;3207;42.648;23.406;2023-04-28T02:25:12;100390.25;;;13.68;nan
6349;BME280;3207;42.648;23.406;2023-04-28T02:27:38;100397.91;;;13.71;nan
6349;BME280;3207;42.648;23.406;2023-04-28T02:30:06;100399.47;;;13.74;nan
6349;BME280;3207;42.648;23.406;2023-04-28T02:32:35;100396.22;;;13.70;nan
6349;BME280;3207;42.648;23.406;2023-04-28T02:35:02;100384.31;;;13.55;nan
6349;BME280;3207;42.648;23.406;2023-04-28T02:37:29;100389.56;;;13.55;nan
6349;BME280;3207;42.648;23.406;2023-04-28T02:39:56;100393.16;;;13.43;nan
6349;BME280;3207;42.648;23.406;2023-04-28T02:42:23;100390.41;;;13.22;nan
6349;BME280;3207;42.648;23.406;2023-04-28T02:44:49;100395.03;;;13.07;nan
6349;BME280;3207;42.648;23.406;2023-04-28T02:47:16;100389.28;;;12.91;nan
6349;BME280;3207;42.648;23.406;2023-04-28T02:49:44;100400.72;;;12.90;nan
6349;BME280;3207;42.648;23.406;2023-04-28T02:52:11;100398.09;;;12.79;nan
6349;BME280;3207;42.648;23.406;2023-04-28T02:54:38;100402.00;;;12.73;nan
6349;BME280;3207;42.648;23.406;2023-04-28T02:57:05;100396.41;;;12.78;nan
6349;BME280;3207;42.648;23.406;2023-04-28T02:59:32;100404.28;;;12.78;nan
6349;BME280;3207;42.648;23.406;2023-04-28T03:01:59;100399.28;;;12.86;nan
6349;BME280;3207;42.648;23.406;2023-04-28T03:04:26;100403.81;;;12.95;nan
6349;BME280;3207;42.648;23.406;2023-04-28T03:06:54;100386.06;;;12.88;nan
6349;BME280;3207;42.648;23.406;2023-04-28T03:09:21;100397.00;;;12.93;nan
6349;BME280;3207;42.648;23.406;2023-04-28T03:11:48;100398.09;;;12.90;nan
6349;BME280;3207;42.648;23.406;2023-04-28T03:14:15;100402.41;;;12.91;nan
6349;BME280;3207;42.648;23.406;2023-04-28T03:16:41;100400.22;;;12.85;nan
6349;BME280;3207;42.648;23.406;2023-04-28T03:19:09;100408.09;;;12.85;nan
6349;BME280;3207;42.648;23.406;2023-04-28T03:21:35;100406.94;;;12.89;nan
6349;BME280;3207;42.648;23.406;2023-04-28T03:24:07;100419.44;;;12.86;nan
6349;BME280;3207;42.648;23.406;2023-04-28T03:26:34;100414.41;;;12.82;nan
6349;BME280;3207;42.648;23.406;2023-04-28T03:29:00;100401.38;;;12.59;nan
6349;BME280;3207;42.648;23.406;2023-04-28T03:31:27;100400.13;;;12.52;nan
6349;BME280;3207;42.648;23.406;2023-04-28T03:33:54;100410.38;;;12.43;nan
6349;BME280;3207;42.648;23.406;2023-04-28T03:36:21;100407.97;;;12.40;nan
6349;BME280;3207;42.648;23.406;2023-04-28T03:38:47;100407.31;;;12.26;nan
6349;BME280;3207;42.648;23.406;2023-04-28T03:41:16;100400.28;;;12.26;nan
6349;BME280;3207;42.648;23.406;2023-04-28T03:43:42;100407.44;;;12.24;nan
6349;BME280;3207;42.648;23.406;2023-04-28T03:46:09;100390.66;;;12.27;nan
6349;BME280;3207;42.648;23.406;2023-04-28T03:48:36;100394.22;;;12.26;nan
6349;BME280;3207;42.648;23.406;2023-04-28T03:51:03;100393.16;;;12.28;nan
6349;BME280;3207;42.648;23.406;2023-04-28T03:53:30;100393.75;;;12.32;nan
6349;BME280;3207;42.648;23.406;2023-04-28T03:55:56;100398.44;;;12.39;nan
6349;BME280;3207;42.648;23.406;2023-04-28T03:58:25;100393.69;;;12.44;nan
6349;BME280;3207;42.648;23.406;2023-04-28T04:00:52;100391.28;;;12.41;nan
6349;BME280;3207;42.648;23.406;2023-04-28T04:03:19;100398.47;;;12.51;nan
6349;BME280;3207;42.648;23.406;2023-04-28T04:05:50;100396.53;;;12.41;nan
6349;BME280;3207;42.648;23.406;2023-04-28T04:08:17;100402.06;;;12.50;nan
6349;BME280;3207;42.648;23.406;2023-04-28T04:10:44;100401.81;;;12.53;nan
6349;BME280;3207;42.648;23.406;2023-04-28T04:13:11;100403.22;;;12.45;nan
6349;BME280;3207;42.648;23.406;2023-04-28T04:15:39;100410.41;;;12.55;nan
6349;BME280;3207;42.648;23.406;2023-04-28T04:18:06;100408.41;;;12.58;nan
6349;BME280;3207;42.648;23.406;2023-04-28T04:20:33;100412.22;;;12.65;nan
6349;BME280;3207;42.648;23.406;2023-04-28T04:23:00;100402.34;;;12.69;nan
6349;BME280;3207;42.648;23.406;2023-04-28T04:25:28;100411.38;;;12.65;nan
6349;BME280;3207;42.648;23.406;2023-04-28T04:27:54;100413.91;;;12.66;nan
6349;BME280;3207;42.648;23.406;2023-04-28T04:30:21;100413.06;;;12.66;nan
6349;BME280;3207;42.648;23.406;2023-04-28T04:32:49;100406.75;;;12.68;nan
6349;BME280;3207;42.648;23.406;2023-04-28T04:35:16;100410.69;;;12.74;nan
6349;BME280;3207;42.648;23.406;2023-04-28T04:37:43;100413.91;;;12.66;nan
6349;BME280;3207;42.648;23.406;2023-04-28T04:40:10;100413.44;;;12.72;nan
6349;BME280;3207;42.648;23.406;2023-04-28T04:42:37;100409.75;;;12.75;nan
6349;BME280;3207;42.648;23.406;2023-04-28T04:45:05;100406.97;;;12.65;nan
6349;BME280;3207;42.648;23.406;2023-04-28T04:47:32;100420.22;;;12.64;nan
6349;BME280;3207;42.648;23.406;2023-04-28T04:50:01;100404.13;;;12.68;nan
6349;BME280;3207;42.648;23.406;2023-04-28T04:52:27;100419.06;;;12.79;nan
6349;BME280;3207;42.648;23.406;2023-04-28T04:54:54;100423.09;;;12.72;nan
6349;BME280;3207;42.648;23.406;2023-04-28T04:57:21;100419.50;;;12.73;nan
6349;BME280;3207;42.648;23.406;2023-04-28T04:59:48;100412.84;;;12.69;nan
6349;BME280;3207;42.648;23.406;2023-04-28T05:02:15;100406.63;;;12.59;nan
6349;BME280;3207;42.648;23.406;2023-04-28T05:04:42;100421.19;;;12.74;nan
6349;BME280;3207;42.648;23.406;2023-04-28T05:07:10;100417.25;;;12.68;nan
6349;BME280;3207;42.648;23.406;2023-04-28T05:09:37;100424.13;;;12.58;nan
6349;BME280;3207;42.648;23.406;2023-04-28T05:12:04;100415.44;;;12.58;nan
6349;BME280;3207;42.648;23.406;2023-04-28T05:14:31;100413.41;;;12.61;nan
6349;BME280;3207;42.648;23.406;2023-04-28T05:16:58;100416.16;;;12.60;nan
6349;BME280;3207;42.648;23.406;2023-04-28T05:19:25;100414.75;;;12.67;nan
6349;BME280;3207;42.648;23.406;2023-04-28T05:21:52;100408.75;;;12.65;nan
6349;BME280;3207;42.648;23.406;2023-04-28T05:24:21;100410.50;;;12.53;nan
6349;BME280;3207;42.648;23.406;2023-04-28T05:26:49;100417.09;;;12.59;nan
6349;BME280;3207;42.648;23.406;2023-04-28T05:29:16;100416.13;;;12.49;nan
6349;BME280;3207;42.648;23.406;2023-04-28T05:31:43;100417.28;;;12.44;nan
6349;BME280;3207;42.648;23.406;2023-04-28T05:34:10;100416.22;;;12.47;nan
6349;BME280;3207;42.648;23.406;2023-04-28T05:36:37;100416.22;;;12.47;nan
6349;BME280;3207;42.648;23.406;2023-04-28T05:39:03;100419.09;;;12.55;nan
6349;BME280;3207;42.648;23.406;2023-04-28T05:41:34;100412.28;;;12.53;nan
6349;BME280;3207;42.648;23.406;2023-04-28T05:44:01;100415.56;;;12.67;nan
6349;BME280;3207;42.648;23.406;2023-04-28T05:46:28;100415.84;;;12.75;nan
6349;BME280;3207;42.648;23.406;2023-04-28T05:48:55;100416.78;;;12.74;nan
6349;BME280;3207;42.648;23.406;2023-04-28T05:51:22;100414.28;;;12.84;nan
6349;BME280;3207;42.648;23.406;2023-04-28T05:53:48;100419.00;;;12.92;nan
6349;BME280;3207;42.648;23.406;2023-04-28T05:56:16;100403.13;;;13.04;nan
6349;BME280;3207;42.648;23.406;2023-04-28T05:58:44;100413.22;;;13.22;nan
6349;BME280;3207;42.648;23.406;2023-04-28T06:01:11;100410.31;;;13.25;nan
6349;BME280;3207;42.648;23.406;2023-04-28T06:03:39;100415.13;;;13.31;nan
6349;BME280;3207;42.648;23.406;2023-04-28T06:06:06;100412.50;;;13.42;nan
6349;BME280;3207;42.648;23.406;2023-04-28T06:08:33;100402.22;;;13.50;nan
6349;BME280;3207;42.648;23.406;2023-04-28T06:11:00;100433.13;;;13.80;nan
6349;BME280;3207;42.648;23.406;2023-04-28T06:13:27;100429.41;;;13.82;nan
6349;BME280;3207;42.648;23.406;2023-04-28T06:15:55;100439.31;;;13.90;nan
6349;BME280;3207;42.648;23.406;2023-04-28T06:18:22;100423.88;;;14.08;nan
6349;BME280;3207;42.648;23.406;2023-04-28T06:20:51;100446.00;;;14.37;nan
6349;BME280;3207;42.648;23.406;2023-04-28T06:23:18;100441.81;;;14.46;nan
6349;BME280;3207;42.648;23.406;2023-04-28T06:25:45;100442.38;;;14.60;nan
6349;BME280;3207;42.648;23.406;2023-04-28T06:28:12;100447.38;;;14.63;nan
6349;BME280;3207;42.648;23.406;2023-04-28T06:30:39;100449.94;;;14.75;nan
6349;BME280;3207;42.648;23.406;2023-04-28T06:33:08;100443.84;;;14.74;nan
6349;BME280;3207;42.648;23.406;2023-04-28T06:35:34;100450.66;;;14.77;nan
6349;BME280;3207;42.648;23.406;2023-04-28T06:38:03;100441.94;;;14.97;nan
6349;BME280;3207;42.648;23.406;2023-04-28T06:40:30;100439.94;;;15.10;nan
6349;BME280;3207;42.648;23.406;2023-04-28T06:42:57;100449.53;;;15.42;nan
6349;BME280;3207;42.648;23.406;2023-04-28T06:45:24;100436.47;;;15.61;nan
6349;BME280;3207;42.648;23.406;2023-04-28T06:47:51;100432.31;;;15.68;nan
6349;BME280;3207;42.648;23.406;2023-04-28T06:50:21;100430.50;;;15.68;nan
6349;BME280;3207;42.648;23.406;2023-04-28T06:52:48;100426.31;;;15.96;nan
6349;BME280;3207;42.648;23.406;2023-04-28T06:55:16;100425.63;;;16.14;nan
6349;BME280;3207;42.648;23.406;2023-04-28T06:57:43;100424.13;;;16.21;nan
6349;BME280;3207;42.648;23.406;2023-04-28T07:00:10;100418.03;;;16.30;nan
6349;BME280;3207;42.648;23.406;2023-04-28T07:02:38;100412.47;;;16.52;nan
6349;BME280;3207;42.648;23.406;2023-04-28T07:05:05;100419.28;;;16.83;nan
6349;BME280;3207;42.648;23.406;2023-04-28T07:07:35;100414.66;;;16.95;nan
6349;BME280;3207;42.648;23.406;2023-04-28T07:10:03;100419.53;;;17.00;nan
6349;BME280;3207;42.648;23.406;2023-04-28T07:12:30;100414.66;;;17.05;nan
6349;BME280;3207;42.648;23.406;2023-04-28T07:14:57;100410.84;;;17.17;nan
6349;BME280;3207;42.648;23.406;2023-04-28T07:17:24;100402.25;;;17.15;nan
6349;BME280;3207;42.648;23.406;2023-04-28T07:19:50;100403.50;;;17.11;nan
6349;BME280;3207;42.648;23.406;2023-04-28T07:22:17;100406.56;;;17.16;nan
6349;BME280;3207;42.648;23.406;2023-04-28T07:24:46;100400.63;;;17.41;nan
6349;BME280;3207;42.648;23.406;2023-04-28T07:27:12;100407.38;;;17.63;nan
6349;BME280;3207;42.648;23.406;2023-04-28T07:29:39;100409.94;;;18.00;nan
6349;BME280;3207;42.648;23.406;2023-04-28T07:32:06;100408.34;;;18.07;nan
6349;BME280;3207;42.648;23.406;2023-04-28T07:34:34;100416.16;;;18.26;nan
6349;BME280;3207;42.648;23.406;2023-04-28T07:37:02;100409.63;;;18.56;nan
6349;BME280;3207;42.648;23.406;2023-04-28T07:39:30;100402.81;;;18.89;nan
6349;BME280;3207;42.648;23.406;2023-04-28T07:41:59;100399.69;;;19.20;nan
6349;BME280;3207;42.648;23.406;2023-04-28T07:44:27;100388.84;;;19.39;nan
6349;BME280;3207;42.648;23.406;2023-04-28T07:46:54;100384.72;;;19.45;nan
6349;BME280;3207;42.648;23.406;2023-04-28T07:49:21;100357.69;;;19.41;nan
6349;BME280;3207;42.648;23.406;2023-04-28T07:51:48;100387.53;;;19.77;nan
6349;BME280;3207;42.648;23.406;2023-04-28T07:54:17;100380.72;;;19.74;nan
6349;BME280;3207;42.648;23.406;2023-04-28T07:56:44;100377.38;;;19.64;nan
6349;BME280;3207;42.648;23.406;2023-04-28T07:59:13;100376.91;;;19.77;nan
6349;BME280;3207;42.648;23.406;2023-04-28T08:01:39;100368.34;;;19.91;nan
6349;BME280;3207;42.648;23.406;2023-04-28T08:04:07;100371.16;;;19.90;nan
6349;BME280;3207;42.648;23.406;2023-04-28T08:06:34;100367.88;;;20.12;nan
6349;BME280;3207;42.648;23.406;2023-04-28T08:09:01;100375.53;;;20.23;nan
6349;BME280;3207;42.648;23.406;2023-04-28T08:11:29;100374.25;;;20.43;nan
6349;BME280;3207;42.648;23.406;2023-04-28T08:13:57;100374.75;;;20.55;nan
6349;BME280;3207;42.648;23.406;2023-04-28T08:16:29;100336.03;;;20.53;nan
6349;BME280;3207;42.648;23.406;2023-04-28T08:18:56;100377.66;;;21.01;nan
6349;BME280;3207;42.648;23.406;2023-04-28T08:21:23;100375.78;;;21.17;nan
6349;BME280;3207;42.648;23.406;2023-04-28T08:23:50;100375.75;;;21.34;nan
6349;BME280;3207;42.648;23.406;2023-04-28T08:26:17;100374.41;;;21.38;nan
6349;BME280;3207;42.648;23.406;2023-04-28T08:28:44;100366.28;;;21.31;nan
6349;BME280;3207;42.648;23.406;2023-04-28T08:31:10;100374.75;;;21.35;nan
6349;BME280;3207;42.648;23.406;2023-04-28T08:33:39;100360.41;;;21.44;nan
6349;BME280;3207;42.648;23.406;2023-04-28T08:36:08;100361.78;;;21.40;nan
6349;BME280;3207;42.648;23.406;2023-04-28T08:38:36;100363.66;;;21.62;nan
6349;BME280;3207;42.648;23.406;2023-04-28T08:41:04;100350.97;;;21.95;nan
6349;BME280;3207;42.648;23.406;2023-04-28T08:43:32;100355.09;;;22.28;nan
6349;BME280;3207;42.648;23.406;2023-04-28T08:45:59;100351.84;;;22.41;nan
6349;BME280;3207;42.648;23.406;2023-04-28T08:48:35;100340.03;;;22.58;nan
6349;BME280;3207;42.648;23.406;2023-04-28T08:51:05;100349.41;;;22.54;nan
6349;BME280;3207;42.648;23.406;2023-04-28T08:53:36;100341.06;;;22.72;nan
6349;BME280;3207;42.648;23.406;2023-04-28T08:56:05;100347.47;;;22.86;nan
6349;BME280;3207;42.648;23.406;2023-04-28T08:58:34;100349.66;;;23.26;nan
6349;BME280;3207;42.648;23.406;2023-04-28T09:01:02;100351.72;;;23.75;nan
6349;BME280;3207;42.648;23.406;2023-04-28T09:03:30;100348.56;;;24.07;nan
6349;BME280;3207;42.648;23.406;2023-04-28T09:05:57;100352.06;;;24.23;nan
6349;BME280;3207;42.648;23.406;2023-04-28T09:08:26;100361.44;;;23.61;nan
6349;BME280;3207;42.648;23.406;2023-04-28T09:11:05;100358.91;;;23.75;nan
6349;BME280;3207;42.648;23.406;2023-04-28T09:13:33;100353.09;;;24.07;nan
6349;BME280;3207;42.648;23.406;2023-04-28T09:16:01;100357.59;;;24.06;nan
6349;BME280;3207;42.648;23.406;2023-04-28T09:18:28;100354.31;;;24.04;nan
6349;BME280;3207;42.648;23.406;2023-04-28T09:21:04;100347.75;;;23.50;nan
6349;BME280;3207;42.648;23.406;2023-04-28T09:23:32;100343.03;;;23.37;nan
6349;BME280;3207;42.648;23.406;2023-04-28T09:26:00;100353.81;;;23.29;nan
6349;BME280;3207;42.648;23.406;2023-04-28T09:28:28;100346.00;;;23.27;nan
6349;BME280;3207;42.648;23.406;2023-04-28T09:30:55;100345.97;;;23.42;nan
6349;BME280;3207;42.648;23.406;2023-04-28T09:33:22;100339.16;;;23.40;nan
6349;BME280;3207;42.648;23.406;2023-04-28T09:35:49;100340.28;;;23.16;nan
6349;BME280;3207;42.648;23.406;2023-04-28T09:38:17;100340.47;;;22.99;nan
6349;BME280;3207;42.648;23.406;2023-04-28T09:40:56;100346.34;;;22.57;nan
6349;BME280;3207;42.648;23.406;2023-04-28T09:43:28;100349.34;;;22.40;nan
6349;BME280;3207;42.648;23.406;2023-04-28T09:45:58;100341.66;;;22.45;nan
6349;BME280;3207;42.648;23.406;2023-04-28T09:48:30;100340.53;;;22.39;nan
6349;BME280;3207;42.648;23.406;2023-04-28T09:50:58;100337.34;;;22.21;nan
6349;BME280;3207;42.648;23.406;2023-04-28T09:53:25;100321.59;;;22.34;nan
6349;BME280;3207;42.648;23.406;2023-04-28T09:55:55;100320.66;;;22.27;nan
6349;BME280;3207;42.648;23.406;2023-04-28T09:58:23;100307.41;;;22.19;nan
6349;BME280;3207;42.648;23.406;2023-04-28T10:00:52;100305.16;;;22.08;nan
6349;BME280;3207;42.648;23.406;2023-04-28T10:03:21;100303.50;;;22.07;nan
6349;BME280;3207;42.648;23.406;2023-04-28T10:05:50;100290.13;;;22.15;nan
6349;BME280;3207;42.648;23.406;2023-04-28T10:08:18;100300.78;;;22.15;nan
6349;BME280;3207;42.648;23.406;2023-04-28T10:10:47;100287.53;;;22.07;nan
6349;BME280;3207;42.648;23.406;2023-04-28T10:13:16;100282.69;;;22.10;nan
6349;BME280;3207;42.648;23.406;2023-04-28T10:15:43;100286.91;;;21.97;nan
6349;BME280;3207;42.648;23.406;2023-04-28T10:18:11;100280.59;;;21.98;nan
6349;BME280;3207;42.648;23.406;2023-04-28T10:20:39;100260.19;;;22.13;nan
6349;BME280;3207;42.648;23.406;2023-04-28T10:23:23;100257.59;;;22.05;nan
6349;BME280;3207;42.648;23.406;2023-04-28T10:25:55;100251.22;;;22.14;nan
6349;BME280;3207;42.648;23.406;2023-04-28T10:28:25;100259.94;;;22.22;nan
6349;BME280;3207;42.648;23.406;2023-04-28T10:31:10;100245.81;;;22.37;nan
6349;BME280;3207;42.648;23.406;2023-04-28T10:33:37;100246.63;;;22.37;nan
6349;BME280;3207;42.648;23.406;2023-04-28T10:36:05;100241.41;;;22.58;nan
6349;BME280;3207;42.648;23.406;2023-04-28T10:38:32;100236.19;;;22.80;nan
6349;BME280;3207;42.648;23.406;2023-04-28T10:41:00;100232.13;;;23.13;nan
6349;BME280;3207;42.648;23.406;2023-04-28T10:43:37;100227.16;;;23.46;nan
6349;BME280;3207;42.648;23.406;2023-04-28T10:46:05;100233.41;;;23.75;nan
6349;BME280;3207;42.648;23.406;2023-04-28T10:48:55;100220.22;;;23.94;nan
6349;BME280;3207;42.648;23.406;2023-04-28T10:51:23;100223.69;;;24.16;nan
6349;BME280;3207;42.648;23.406;2023-04-28T10:54:15;100168.47;;;23.95;nan
6349;BME280;3207;42.648;23.406;2023-04-28T10:57:19;100219.22;;;24.44;nan
6349;BME280;3207;42.648;23.406;2023-04-28T10:59:50;100222.53;;;24.47;nan
6349;BME280;3207;42.648;23.406;2023-04-28T11:02:47;100226.53;;;24.70;nan
6349;BME280;3207;42.648;23.406;2023-04-28T11:05:15;100219.22;;;24.86;nan
6349;BME280;3207;42.648;23.406;2023-04-28T11:11:20;100219.53;;;24.07;nan
6349;BME280;3207;42.648;23.406;2023-04-28T11:13:49;100209.06;;;23.63;nan
6349;BME280;3207;42.648;23.406;2023-04-28T11:16:24;100208.78;;;23.51;nan
6349;BME280;3207;42.648;23.406;2023-04-28T11:18:56;100211.31;;;23.59;nan
6349;BME280;3207;42.648;23.406;2023-04-28T11:21:24;100200.53;;;23.74;nan
6349;BME280;3207;42.648;23.406;2023-04-28T11:23:52;100211.44;;;23.73;nan
6349;BME280;3207;42.648;23.406;2023-04-28T11:26:20;100198.66;;;23.68;nan
6349;BME280;3207;42.648;23.406;2023-04-28T11:28:49;100195.28;;;23.59;nan
6349;BME280;3207;42.648;23.406;2023-04-28T11:31:17;100187.78;;;23.12;nan
6349;BME280;3207;42.648;23.406;2023-04-28T11:34:02;100182.81;;;22.88;nan
6349;BME280;3207;42.648;23.406;2023-04-28T11:36:32;100179.84;;;22.53;nan
6349;BME280;3207;42.648;23.406;2023-04-28T11:39:01;100169.84;;;22.55;nan
6349;BME280;3207;42.648;23.406;2023-04-28T11:41:30;100169.47;;;22.58;nan
6349;BME280;3207;42.648;23.406;2023-04-28T11:43:58;100157.53;;;22.54;nan
6349;BME280;3207;42.648;23.406;2023-04-28T11:46:25;100163.75;;;22.61;nan
6349;BME280;3207;42.648;23.406;2023-04-28T11:49:01;100154.13;;;22.60;nan
6349;BME280;3207;42.648;23.406;2023-04-28T11:51:30;100155.03;;;22.82;nan
6349;BME280;3207;42.648;23.406;2023-04-28T11:53:58;100156.31;;;22.86;nan
6349;BME280;3207;42.648;23.406;2023-04-28T11:56:25;100146.88;;;23.05;nan
6349;BME280;3207;42.648;23.406;2023-04-28T11:59:02;100138.94;;;23.33;nan
6349;BME280;3207;42.648;23.406;2023-04-28T12:01:30;100143.09;;;23.57;nan
6349;BME280;3207;42.648;23.406;2023-04-28T12:03:57;100137.69;;;23.71;nan
6349;BME280;3207;42.648;23.406;2023-04-28T12:06:26;100136.94;;;23.84;nan
6349;BME280;3207;42.648;23.406;2023-04-28T12:08:54;100122.41;;;23.87;nan
6349;BME280;3207;42.648;23.406;2023-04-28T12:11:21;100130.34;;;24.08;nan
6349;BME280;3207;42.648;23.406;2023-04-28T12:14:07;100120.06;;;24.33;nan
6349;BME280;3207;42.648;23.406;2023-04-28T12:16:39;100128.84;;;24.27;nan
6349;BME280;3207;42.648;23.406;2023-04-28T12:19:08;100117.13;;;24.28;nan
6349;BME280;3207;42.648;23.406;2023-04-28T12:21:37;100123.19;;;24.50;nan
6349;BME280;3207;42.648;23.406;2023-04-28T12:24:18;100128.28;;;24.86;nan
6349;BME280;3207;42.648;23.406;2023-04-28T12:26:46;100126.00;;;24.83;nan
6349;BME280;3207;42.648;23.406;2023-04-28T12:29:38;100121.72;;;24.88;nan
6349;BME280;3207;42.648;23.406;2023-04-28T12:32:06;100124.78;;;24.78;nan
6349;BME280;3207;42.648;23.406;2023-04-28T12:34:34;100120.84;;;24.74;nan
6349;BME280;3207;42.648;23.406;2023-04-28T12:37:03;100113.69;;;24.88;nan
6349;BME280;3207;42.648;23.406;2023-04-28T12:39:31;100111.78;;;24.75;nan
6349;BME280;3207;42.648;23.406;2023-04-28T12:41:59;100088.50;;;24.69;nan
6349;BME280;3207;42.648;23.406;2023-04-28T12:44:27;100091.44;;;24.74;nan
6349;BME280;3207;42.648;23.406;2023-04-28T12:47:01;100094.09;;;24.68;nan
6349;BME280;3207;42.648;23.406;2023-04-28T12:49:28;100079.72;;;24.75;nan
6349;BME280;3207;42.648;23.406;2023-04-28T12:51:55;100092.25;;;24.81;nan
6349;BME280;3207;42.648;23.406;2023-04-28T12:54:23;100087.09;;;24.73;nan
6349;BME280;3207;42.648;23.406;2023-04-28T12:56:50;100074.94;;;24.58;nan
6349;BME280;3207;42.648;23.406;2023-04-28T12:59:17;100082.09;;;24.51;nan
6349;BME280;3207;42.648;23.406;2023-04-28T13:01:44;100080.28;;;24.64;nan
6349;BME280;3207;42.648;23.406;2023-04-28T13:04:10;100070.03;;;24.74;nan
6349;BME280;3207;42.648;23.406;2023-04-28T13:06:37;100074.63;;;24.94;nan
6349;BME280;3207;42.648;23.406;2023-04-28T13:09:05;100078.13;;;25.01;nan
6349;BME280;3207;42.648;23.406;2023-04-28T13:11:33;100071.00;;;24.54;nan
6349;BME280;3207;42.648;23.406;2023-04-28T13:14:00;100060.88;;;24.01;nan
6349;BME280;3207;42.648;23.406;2023-04-28T13:16:28;100064.94;;;23.97;nan
6349;BME280;3207;42.648;23.406;2023-04-28T13:18:55;100072.75;;;23.99;nan
6349;BME280;3207;42.648;23.406;2023-04-28T13:21:23;100065.22;;;23.75;nan
6349;BME280;3207;42.648;23.406;2023-04-28T13:23:51;100052.75;;;23.54;nan
6349;BME280;3207;42.648;23.406;2023-04-28T13:26:18;100052.19;;;23.37;nan
6349;BME280;3207;42.648;23.406;2023-04-28T13:28:46;100039.69;;;23.16;nan
6349;BME280;3207;42.648;23.406;2023-04-28T13:31:13;100040.53;;;23.45;nan